Time;durP1;ratioP1;P1;durP2;ratioP2;P2;SDS_P1;SDS_P2;PMS_P1;PMS_P2;Temp;Humidity;BMP_temperature;BMP_pressure;BME280_temperature;BME280_humidity;BME280_pressure;Samples;Min_cycle;Max_cycle;Signal;HPM_P1;HPM_P2
2021/01/04 00:01:08;;;;;;;32.80;15.93;;;0.00;99.90;;;;;;5047706;28;20450;-60
2021/01/04 00:03:55;;;;;;;28.30;15.40;;;0.00;99.90;;;;;;5047463;28;20443;-60
2021/01/04 00:06:43;;;;;;;29.20;16.00;;;0.00;99.90;;;;;;5047942;28;20447;-60
2021/01/04 00:09:27;;;;;;;28.33;15.77;;;0.00;99.90;;;;;;5063152;28;20427;-61
2021/01/04 00:12:12;;;;;;;32.00;15.07;;;0.00;99.90;;;;;;5058566;28;20434;-59
2021/01/04 00:14:52;;;;;;;30.60;16.33;;;0.00;99.90;;;;;;5061199;28;20489;-60
2021/01/04 00:17:42;;;;;;;26.40;14.30;;;0.00;99.90;;;;;;5051422;28;20846;-62
2021/01/04 00:20:32;;;;;;;30.83;16.17;;;0.00;99.90;;;;;;5050203;28;20973;-61
2021/01/04 00:23:13;;;;;;;32.07;15.43;;;0.10;99.90;;;;;;5057970;28;20932;-60
2021/01/04 00:26:11;;;;;;;28.17;16.10;;;0.00;99.90;;;;;;5048923;28;20450;-61
2021/01/04 00:28:38;;;;;;;29.10;15.70;;;0.00;99.90;;;;;;5049959;28;20441;-59
2021/01/04 00:31:17;;;;;;;28.63;15.63;;;0.00;99.90;;;;;;5051557;28;21433;-58
2021/01/04 00:33:52;;;;;;;30.73;15.23;;;0.00;99.90;;;;;;5050669;28;20426;-60
2021/01/04 00:36:21;;;;;;;32.20;15.73;;;0.00;99.90;;;;;;5055149;28;20810;-61
2021/01/04 00:39:25;;;;;;;33.13;16.83;;;0.00;99.90;;;;;;5053787;28;20489;-61
2021/01/04 00:41:59;;;;;;;27.20;14.07;;;0.00;99.90;;;;;;5046904;28;20446;-60
2021/01/04 00:44:35;;;;;;;26.90;14.17;;;0.00;99.90;;;;;;5056134;28;20427;-62
2021/01/04 00:47:12;;;;;;;32.10;16.07;;;0.00;99.90;;;;;;5060833;28;20442;-61
2021/01/04 00:49:41;;;;;;;30.20;15.17;;;0.00;99.90;;;;;;5061509;28;20552;-61
2021/01/04 00:52:13;;;;;;;28.70;15.23;;;0.00;99.90;;;;;;5065235;28;20480;-61
2021/01/04 00:54:53;;;;;;;30.47;15.03;;;0.00;99.90;;;;;;5062580;28;20472;-61
2021/01/04 00:58:01;;;;;;;31.27;14.60;;;0.00;99.90;;;;;;5054765;28;20463;-61
2021/01/04 01:00:38;;;;;;;28.03;14.90;;;0.00;99.90;;;;;;5041690;28;20451;-60
2021/01/04 01:03:21;;;;;;;32.70;14.37;;;0.00;99.90;;;;;;5051757;28;20438;-61
2021/01/04 01:06:27;;;;;;;31.70;15.33;;;0.00;99.90;;;;;;5064442;28;20442;-60
2021/01/04 01:08:56;;;;;;;27.50;14.73;;;0.00;99.90;;;;;;5051158;28;20522;-59
2021/01/04 01:11:24;;;;;;;33.40;15.07;;;0.00;99.90;;;;;;5055653;28;20459;-60
2021/01/04 01:14:00;;;;;;;30.80;14.37;;;0.00;99.90;;;;;;5061879;28;20495;-60
2021/01/04 01:16:59;;;;;;;26.33;14.57;;;0.00;99.90;;;;;;5062083;28;20489;-61
2021/01/04 01:19:28;;;;;;;29.70;15.10;;;0.00;99.90;;;;;;5056651;28;20451;-61
2021/01/04 01:21:54;;;;;;;31.73;14.83;;;0.00;99.90;;;;;;5053163;28;20919;-60
2021/01/04 01:24:24;;;;;;;34.83;15.67;;;0.00;99.90;;;;;;5053639;28;20876;-61
2021/01/04 01:27:07;;;;;;;28.00;16.00;;;0.00;99.90;;;;;;5056373;28;20518;-60
2021/01/04 01:30:08;;;;;;;29.30;15.30;;;0.00;99.90;;;;;;5052423;28;20462;-59
2021/01/04 01:32:57;;;;;;;32.00;15.07;;;0.00;99.90;;;;;;5056728;28;20480;-60
2021/01/04 01:35:41;;;;;;;26.90;13.90;;;0.00;99.90;;;;;;5054429;28;20435;-61
2021/01/04 01:38:44;;;;;;;31.47;15.07;;;0.00;99.90;;;;;;5061649;28;20472;-60
2021/01/04 01:41:40;;;;;;;33.03;16.70;;;-0.10;99.90;;;;;;5051152;28;20486;-60
2021/01/04 01:44:31;;;;;;;28.93;14.97;;;0.00;99.90;;;;;;5060983;28;20426;-61
2021/01/04 01:47:09;;;;;;;33.90;15.83;;;-0.10;99.90;;;;;;5061132;28;20442;-61
2021/01/04 01:50:12;;;;;;;25.60;13.53;;;0.00;99.90;;;;;;5060504;28;20488;-61
2021/01/04 01:52:54;;;;;;;29.90;15.30;;;0.00;99.90;;;;;;5051077;28;20430;-60
2021/01/04 01:55:47;;;;;;;32.60;16.20;;;0.00;99.90;;;;;;5058732;28;20518;-61
2021/01/04 01:58:37;;;;;;;28.37;14.93;;;0.00;99.90;;;;;;5053557;28;20462;-60
2021/01/04 02:01:58;;;;;;;32.17;15.10;;;0.00;99.90;;;;;;5052232;28;20466;-60
2021/01/04 02:05:01;;;;;;;27.10;14.53;;;0.00;99.90;;;;;;5035788;28;20443;-60
2021/01/04 02:07:51;;;;;;;33.10;14.70;;;0.00;99.90;;;;;;5067978;28;21119;-60
2021/01/04 02:10:45;;;;;;;27.40;13.83;;;0.00;99.90;;;;;;5053727;28;20833;-61
2021/01/04 02:13:35;;;;;;;30.27;15.67;;;0.00;99.90;;;;;;5073068;28;20801;-60
2021/01/04 02:16:11;;;;;;;28.47;14.07;;;0.00;99.90;;;;;;5057059;28;21055;-61
2021/01/04 02:18:43;;;;;;;24.43;13.77;;;0.00;99.90;;;;;;5058334;28;20949;-60
2021/01/04 02:21:56;;;;;;;27.60;14.80;;;0.00;99.90;;;;;;5052510;28;20459;-60
2021/01/04 02:24:24;;;;;;;26.50;13.67;;;0.00;99.90;;;;;;5061983;28;20425;-60
2021/01/04 02:27:13;;;;;;;29.20;14.70;;;0.00;99.90;;;;;;5065588;28;20437;-60
2021/01/04 02:29:42;;;;;;;25.40;13.70;;;0.00;99.90;;;;;;5051781;28;20466;-61
2021/01/04 02:32:09;;;;;;;27.20;14.57;;;0.00;99.90;;;;;;5064011;28;20442;-59
2021/01/04 02:34:43;;;;;;;24.00;14.07;;;0.00;99.90;;;;;;5053209;28;20452;-61
2021/01/04 02:37:09;;;;;;;29.10;14.13;;;0.00;99.90;;;;;;5065995;28;20461;-61
2021/01/04 02:39:40;;;;;;;27.40;13.50;;;0.00;99.90;;;;;;5052969;28;20453;-61
2021/01/04 02:42:19;;;;;;;27.03;13.97;;;0.00;99.90;;;;;;5057789;28;20430;-60
2021/01/04 02:44:45;;;;;;;28.37;14.90;;;0.00;99.90;;;;;;5057908;28;20451;-60
2021/01/04 02:47:17;;;;;;;28.53;13.77;;;0.00;99.90;;;;;;5055612;28;20521;-61
2021/01/04 02:50:05;;;;;;;30.43;14.77;;;0.00;99.90;;;;;;5060822;28;21252;-61
2021/01/04 02:52:59;;;;;;;29.93;15.90;;;0.00;99.90;;;;;;5061837;28;20533;-60
2021/01/04 02:55:43;;;;;;;29.40;14.73;;;0.00;99.90;;;;;;5043842;28;20438;-59
2021/01/04 02:58:52;;;;;;;26.80;15.30;;;0.00;99.90;;;;;;5060337;28;20454;-61
2021/01/04 03:01:40;;;;;;;30.77;13.90;;;0.00;99.90;;;;;;5055096;28;20438;-60
2021/01/04 03:04:09;;;;;;;28.63;14.57;;;0.00;99.90;;;;;;5054691;28;20426;-60
2021/01/04 03:06:56;;;;;;;25.20;13.20;;;0.00;99.90;;;;;;5060796;28;20415;-60
2021/01/04 03:09:26;;;;;;;25.60;13.77;;;0.00;99.90;;;;;;5060810;28;20997;-60
2021/01/04 03:11:52;;;;;;;36.10;15.53;;;0.00;99.90;;;;;;5056885;28;20429;-59
2021/01/04 03:14:37;;;;;;;29.70;14.33;;;0.00;99.90;;;;;;5063563;28;20425;-61
2021/01/04 03:17:34;;;;;;;27.77;14.43;;;0.00;99.90;;;;;;5059253;28;20218;-60
2021/01/04 03:20:04;;;;;;;25.93;13.63;;;0.00;99.90;;;;;;5056989;28;20455;-60
2021/01/04 03:22:30;;;;;;;31.07;12.97;;;-0.10;99.90;;;;;;5061733;28;20429;-62
2021/01/04 03:24:55;;;;;;;27.70;14.50;;;-0.10;99.90;;;;;;5061665;28;20449;-60
2021/01/04 03:27:41;;;;;;;25.77;13.50;;;-0.10;99.90;;;;;;5056207;28;20177;-61
2021/01/04 03:30:07;;;;;;;30.80;14.90;;;-0.10;99.90;;;;;;5062320;28;20195;-61
2021/01/04 03:32:33;;;;;;;30.50;15.20;;;-0.10;99.90;;;;;;5065886;28;20505;-60
2021/01/04 03:34:58;;;;;;;31.40;15.23;;;-0.10;99.90;;;;;;5053516;28;20445;-61
2021/01/04 03:37:24;;;;;;;27.97;14.03;;;-0.10;99.90;;;;;;5053699;28;20204;-60
2021/01/04 03:39:50;;;;;;;25.97;13.83;;;-0.10;99.90;;;;;;5051767;28;20259;-60
2021/01/04 03:42:15;;;;;;;30.07;13.70;;;-0.10;99.90;;;;;;5059169;28;20223;-61
2021/01/04 03:44:41;;;;;;;27.37;13.40;;;0.00;99.90;;;;;;5057558;28;20180;-60
2021/01/04 03:47:07;;;;;;;28.57;14.20;;;0.00;99.90;;;;;;5058988;28;20184;-60
2021/01/04 03:49:35;;;;;;;27.57;14.50;;;0.00;99.90;;;;;;5050817;28;20319;-61
2021/01/04 03:52:01;;;;;;;25.93;13.00;;;0.00;99.90;;;;;;5048607;28;20276;-61
2021/01/04 03:54:27;;;;;;;27.57;13.17;;;0.00;99.90;;;;;;5056676;28;20545;-61
2021/01/04 03:56:53;;;;;;;27.90;13.37;;;0.00;99.90;;;;;;5059783;28;20236;-60
2021/01/04 03:59:19;;;;;;;28.17;14.20;;;0.00;99.90;;;;;;5048983;28;20495;-62
2021/01/04 04:01:52;;;;;;;29.70;13.50;;;0.00;99.90;;;;;;5053391;28;20525;-60
2021/01/04 04:04:19;;;;;;;25.00;13.57;;;0.00;99.90;;;;;;5050698;28;20979;-60
2021/01/04 04:06:46;;;;;;;29.03;14.47;;;0.00;99.90;;;;;;5055887;28;20449;-62
2021/01/04 04:09:13;;;;;;;23.63;13.07;;;0.00;99.90;;;;;;5057453;28;20423;-60
2021/01/04 04:11:39;;;;;;;27.10;14.17;;;0.00;99.90;;;;;;5058174;28;20454;-61
2021/01/04 04:14:05;;;;;;;30.67;13.97;;;0.00;99.90;;;;;;5063277;28;20528;-60
2021/01/04 04:16:32;;;;;;;29.80;14.03;;;0.00;99.90;;;;;;5061803;28;20760;-61
2021/01/04 04:18:58;;;;;;;26.53;13.57;;;0.00;99.90;;;;;;5055706;28;20448;-61
2021/01/04 04:21:24;;;;;;;26.13;13.10;;;0.10;99.90;;;;;;5057371;28;20950;-61
2021/01/04 04:23:49;;;;;;;30.83;13.50;;;0.10;99.90;;;;;;5051510;28;20191;-61
2021/01/04 04:26:23;;;;;;;29.53;13.17;;;0.10;99.90;;;;;;5057637;28;20427;-61
2021/01/04 04:28:49;;;;;;;28.17;14.83;;;0.10;99.90;;;;;;5056433;28;20188;-61
2021/01/04 04:31:15;;;;;;;24.03;13.00;;;0.10;99.90;;;;;;5054728;28;20462;-60
2021/01/04 04:33:42;;;;;;;26.33;13.53;;;0.10;99.90;;;;;;5059133;28;20960;-61
2021/01/04 04:36:09;;;;;;;24.70;13.37;;;0.10;99.90;;;;;;5055107;28;20922;-61
2021/01/04 04:38:35;;;;;;;25.03;13.23;;;0.00;99.90;;;;;;5057866;28;20518;-60
2021/01/04 04:41:02;;;;;;;21.87;12.67;;;0.00;99.90;;;;;;5064720;28;20552;-62
2021/01/04 04:43:42;;;;;;;22.57;13.20;;;0.00;99.90;;;;;;5054371;28;21039;-60
2021/01/04 04:46:20;;;;;;;23.30;12.27;;;0.00;99.90;;;;;;5053401;28;20438;-61
2021/01/04 04:48:53;;;;;;;24.70;13.53;;;0.00;99.90;;;;;;5053314;28;20430;-61
2021/01/04 04:51:45;;;;;;;28.00;13.77;;;0.00;99.90;;;;;;5058629;28;20855;-60
2021/01/04 04:54:27;;;;;;;25.23;13.23;;;0.00;99.90;;;;;;5055232;28;20496;-60
2021/01/04 04:57:26;;;;;;;24.90;13.17;;;0.00;99.90;;;;;;5061039;28;20834;-60
2021/01/04 05:00:03;;;;;;;27.40;13.80;;;0.00;99.90;;;;;;5061008;28;20450;-60
2021/01/04 05:02:51;;;;;;;24.10;12.27;;;0.00;99.90;;;;;;5052487;28;21121;-59
2021/01/04 05:05:36;;;;;;;21.87;12.40;;;0.00;99.90;;;;;;5052996;28;20423;-60
2021/01/04 05:08:14;;;;;;;22.10;11.50;;;0.00;99.90;;;;;;5051806;28;20431;-61
2021/01/04 05:10:43;;;;;;;24.43;13.27;;;0.00;99.90;;;;;;5057996;28;20542;-61
2021/01/04 05:13:25;;;;;;;22.87;11.97;;;0.00;99.90;;;;;;5051798;28;20959;-61
2021/01/04 05:15:54;;;;;;;24.90;12.80;;;0.00;99.90;;;;;;5053861;28;20435;-61
2021/01/04 05:18:25;;;;;;;23.03;11.90;;;0.00;99.90;;;;;;5053557;28;20492;-61
2021/01/04 05:21:29;;;;;;;26.20;11.53;;;0.00;99.90;;;;;;5056919;28;20484;-59
2021/01/04 05:24:24;;;;;;;26.77;13.90;;;0.00;99.90;;;;;;5060959;28;20430;-61
2021/01/04 05:27:23;;;;;;;25.20;12.00;;;0.00;99.90;;;;;;5060999;28;20983;-60
2021/01/04 05:30:16;;;;;;;23.93;13.37;;;0.00;99.90;;;;;;5053965;28;20557;-60
2021/01/04 05:32:58;;;;;;;26.83;13.07;;;0.00;99.90;;;;;;5058603;28;20926;-60
2021/01/04 05:35:26;;;;;;;23.20;12.73;;;0.00;99.90;;;;;;5059047;28;21087;-60
2021/01/04 05:38:18;;;;;;;25.30;13.07;;;0.00;99.90;;;;;;5059968;28;22207;-61
2021/01/04 05:41:14;;;;;;;25.80;13.70;;;0.00;99.90;;;;;;5056270;28;20462;-61
2021/01/04 05:43:40;;;;;;;23.80;13.20;;;0.00;99.90;;;;;;5059204;28;20454;-60
2021/01/04 05:46:19;;;;;;;23.40;12.97;;;0.00;99.90;;;;;;5051908;28;20885;-61
2021/01/04 05:49:06;;;;;;;22.13;12.10;;;0.00;99.90;;;;;;5062479;28;20556;-61
2021/01/04 05:54:35;;;;;;;27.57;14.27;;;0.00;99.90;;;;;;5027687;28;20458;-58
2021/01/04 05:57:16;;;;;;;27.37;14.00;;;0.00;99.90;;;;;;5026569;28;20458;-57
2021/01/04 05:59:54;;;;;;;28.53;13.50;;;0.00;99.90;;;;;;5030278;28;20463;-58
2021/01/04 06:02:26;;;;;;;24.10;13.20;;;0.00;99.90;;;;;;5037264;28;21204;-60
2021/01/04 06:04:52;;;;;;;25.37;12.77;;;-0.10;99.90;;;;;;5052032;28;20628;-59
2021/01/04 06:07:18;;;;;;;30.57;13.73;;;-0.10;99.90;;;;;;5041463;28;20894;-58
2021/01/04 06:09:57;;;;;;;26.10;13.67;;;-0.10;99.90;;;;;;5028562;28;20436;-57
2021/01/04 06:12:41;;;;;;;25.20;13.40;;;-0.10;99.90;;;;;;5027636;28;21106;-57
2021/01/04 06:15:09;;;;;;;23.77;12.17;;;0.00;99.90;;;;;;5034004;28;20443;-57
2021/01/04 06:17:42;;;;;;;26.37;12.40;;;0.00;99.90;;;;;;5025291;28;20875;-57
2021/01/04 06:20:39;;;;;;;23.10;11.50;;;0.00;99.90;;;;;;5029860;28;20498;-58
2021/01/04 06:23:20;;;;;;;26.27;12.77;;;0.00;99.90;;;;;;5035639;28;20443;-56
2021/01/04 06:25:52;;;;;;;26.33;13.53;;;0.00;99.90;;;;;;5025936;28;20474;-58
2021/01/04 06:28:18;;;;;;;32.20;13.73;;;0.00;99.90;;;;;;5030839;28;20773;-56
2021/01/04 06:30:43;;;;;;;26.57;13.60;;;0.00;99.90;;;;;;5028872;28;20447;-59
2021/01/04 06:33:21;;;;;;;25.43;12.70;;;0.00;99.90;;;;;;5028728;28;20248;-58
2021/01/04 06:35:47;;;;;;;25.77;13.23;;;0.00;99.90;;;;;;5030420;28;20193;-57
2021/01/04 06:38:26;;;;;;;21.57;12.20;;;0.00;99.90;;;;;;5038170;28;20475;-58
2021/01/04 06:40:52;;;;;;;25.57;14.10;;;0.00;99.90;;;;;;5021821;28;20185;-58
2021/01/04 06:43:31;;;;;;;27.20;13.07;;;0.00;99.90;;;;;;5020401;28;20873;-58
2021/01/04 06:46:18;;;;;;;26.50;13.70;;;0.00;99.90;;;;;;5023887;28;20435;-59
2021/01/04 06:48:52;;;;;;;26.07;14.23;;;0.00;99.90;;;;;;5026051;28;20436;-59
2021/01/04 06:51:54;;;;;;;24.27;13.30;;;0.00;99.90;;;;;;5026320;28;20428;-58
2021/01/04 06:54:29;;;;;;;26.27;13.20;;;0.00;99.90;;;;;;5024209;28;20430;-59
2021/01/04 06:57:30;;;;;;;25.77;13.00;;;0.00;99.90;;;;;;5023315;28;20571;-58
2021/01/04 07:00:15;;;;;;;25.73;13.27;;;0.00;99.90;;;;;;5025902;28;20430;-58
2021/01/04 07:03:14;;;;;;;36.00;16.07;;;0.00;99.90;;;;;;5028562;28;20440;-58
2021/01/04 07:06:07;;;;;;;30.13;15.47;;;0.00;99.90;;;;;;5029512;28;20433;-59
2021/01/04 07:08:49;;;;;;;31.63;15.30;;;0.00;99.90;;;;;;5045305;28;20508;-58
2021/01/04 07:11:36;;;;;;;37.17;16.80;;;0.00;99.90;;;;;;5045172;28;20456;-58
2021/01/04 07:14:23;;;;;;;31.87;16.37;;;0.00;99.90;;;;;;5025989;28;20459;-58
2021/01/04 07:17:01;;;;;;;40.43;16.70;;;0.10;99.90;;;;;;5032335;28;20972;-58
2021/01/04 07:19:42;;;;;;;36.43;17.10;;;0.10;99.90;;;;;;5026441;28;20436;-58
2021/01/04 07:22:20;;;;;;;35.70;17.23;;;0.10;99.90;;;;;;5019962;28;20453;-58
2021/01/04 07:25:04;;;;;;;36.77;17.40;;;0.10;99.90;;;;;;5023257;28;20437;-58
2021/01/04 07:27:54;;;;;;;34.83;16.87;;;0.10;99.90;;;;;;5028362;28;20523;-58
2021/01/04 07:30:43;;;;;;;34.70;15.63;;;0.10;99.90;;;;;;5032480;28;20435;-57
2021/01/04 07:33:35;;;;;;;35.33;16.27;;;0.20;99.90;;;;;;5024521;28;20475;-57
2021/01/04 07:36:17;;;;;;;39.27;18.07;;;0.20;99.90;;;;;;5017912;28;20472;-59
2021/01/04 07:38:59;;;;;;;37.97;17.77;;;0.20;99.90;;;;;;5021236;28;20993;-58
2021/01/04 07:41:27;;;;;;;37.77;16.83;;;0.20;99.90;;;;;;5020572;28;20862;-58
2021/01/04 07:44:23;;;;;;;42.47;17.77;;;0.20;99.90;;;;;;5018165;28;20448;-58
2021/01/04 07:47:01;;;;;;;35.87;16.20;;;0.30;99.90;;;;;;5023049;28;20448;-59
2021/01/04 07:49:46;;;;;;;38.77;17.37;;;0.30;99.90;;;;;;5022851;28;20514;-58
2021/01/04 07:52:49;;;;;;;41.67;18.13;;;0.30;99.90;;;;;;5023031;28;20479;-58
2021/01/04 07:55:39;;;;;;;43.70;18.50;;;0.30;99.90;;;;;;5021906;28;20806;-58
2021/01/04 07:58:14;;;;;;;36.80;17.60;;;0.30;99.90;;;;;;5022369;28;21020;-57
2021/01/04 08:00:39;;;;;;;34.97;17.43;;;0.30;99.90;;;;;;5014430;28;20431;-62
2021/01/04 08:03:34;;;;;;;34.10;17.47;;;0.30;99.90;;;;;;5019973;28;20460;-58
2021/01/04 08:06:16;;;;;;;36.57;17.73;;;0.40;99.90;;;;;;5041995;28;20185;-58
2021/01/04 08:08:47;;;;;;;39.03;18.93;;;0.40;99.90;;;;;;5034372;28;20484;-57
2021/01/04 08:11:50;;;;;;;35.47;16.30;;;0.40;99.90;;;;;;5032366;28;20470;-58
2021/01/04 08:14:28;;;;;;;36.50;15.97;;;0.40;99.90;;;;;;5039384;28;20547;-59
2021/01/04 08:17:21;;;;;;;37.87;17.80;;;0.40;99.90;;;;;;5027543;28;20480;-59
2021/01/04 08:19:51;;;;;;;37.90;17.50;;;0.50;99.90;;;;;;5044139;28;20445;-59
2021/01/04 08:22:18;;;;;;;37.37;16.77;;;0.40;99.90;;;;;;5033410;28;20448;-59
2021/01/04 08:24:46;;;;;;;37.57;17.10;;;0.40;99.90;;;;;;5037395;28;20527;-58
2021/01/04 08:27:17;;;;;;;38.10;17.17;;;0.50;99.90;;;;;;5038476;28;20498;-60
2021/01/04 08:30:04;;;;;;;36.13;18.00;;;0.50;99.90;;;;;;5026240;28;20445;-57
2021/01/04 08:32:40;;;;;;;35.27;17.40;;;0.50;99.90;;;;;;5020057;28;20455;-58
2021/01/04 08:35:14;;;;;;;35.83;16.87;;;0.50;99.90;;;;;;5017476;28;20433;-58
2021/01/04 08:37:45;;;;;;;35.10;16.77;;;0.50;99.90;;;;;;5022816;28;20478;-58
2021/01/04 08:40:31;;;;;;;39.93;17.40;;;0.50;99.90;;;;;;5024901;28;20464;-59
2021/01/04 08:43:07;;;;;;;44.63;17.50;;;0.50;99.90;;;;;;5022221;28;20927;-59
2021/01/04 08:45:48;;;;;;;39.43;17.63;;;0.50;99.90;;;;;;5026603;28;20456;-58
2021/01/04 08:48:20;;;;;;;32.60;16.20;;;0.50;99.90;;;;;;5023424;28;20443;-59
2021/01/04 08:51:07;;;;;;;40.77;18.50;;;0.50;99.90;;;;;;5034175;28;20426;-59
2021/01/04 08:53:33;;;;;;;39.60;18.03;;;0.50;99.90;;;;;;5015022;28;20469;-59
2021/01/04 08:56:14;;;;;;;39.73;17.90;;;0.60;99.90;;;;;;5020199;28;21066;-57
2021/01/04 08:58:43;;;;;;;33.80;17.77;;;0.60;99.90;;;;;;5015758;28;21210;-58
2021/01/04 09:01:12;;;;;;;38.53;18.70;;;0.60;99.90;;;;;;5029333;28;20425;-57
2021/01/04 09:03:39;;;;;;;37.93;17.57;;;0.70;99.90;;;;;;5020249;28;20475;-57
2021/01/04 09:06:14;;;;;;;37.87;15.67;;;0.70;99.90;;;;;;5025052;28;20531;-59
2021/01/04 09:08:50;;;;;;;34.37;15.50;;;0.70;99.90;;;;;;5024853;28;20487;-56
2021/01/04 09:11:16;;;;;;;36.70;16.43;;;0.70;99.70;;;;;;5024093;28;20457;-59
2021/01/04 09:13:44;;;;;;;37.53;16.07;;;0.70;99.60;;;;;;5015948;28;20460;-59
2021/01/04 09:16:31;;;;;;;26.10;14.03;;;0.70;99.20;;;;;;5019351;28;20489;-58
2021/01/04 09:19:17;;;;;;;29.03;14.50;;;0.70;98.90;;;;;;5024054;28;20434;-60
2021/01/04 09:21:45;;;;;;;29.27;14.07;;;0.70;98.50;;;;;;5031715;28;20435;-57
2021/01/04 09:24:31;;;;;;;28.00;13.00;;;0.70;98.60;;;;;;5032835;28;20807;-59
2021/01/04 09:27:00;;;;;;;30.90;15.00;;;0.70;97.90;;;;;;5024418;28;20801;-59
2021/01/04 09:29:46;;;;;;;33.20;15.63;;;0.70;97.70;;;;;;5022138;28;20438;-60
2021/01/04 09:32:16;;;;;;;31.87;13.73;;;0.70;97.70;;;;;;5039238;28;20801;-57
2021/01/04 09:34:42;;;;;;;28.97;13.03;;;0.70;97.30;;;;;;5028132;28;20588;-58
2021/01/04 09:37:26;;;;;;;30.90;13.10;;;0.70;97.00;;;;;;5027297;28;20503;-59
2021/01/04 09:40:01;;;;;;;27.77;13.60;;;0.70;96.80;;;;;;5028161;28;20240;-57
2021/01/04 09:42:28;;;;;;;24.50;13.97;;;0.80;96.60;;;;;;5030088;28;20451;-58
2021/01/04 09:44:55;;;;;;;24.33;12.90;;;0.70;96.20;;;;;;5010709;28;20463;-58
2021/01/04 09:47:34;;;;;;;25.37;13.27;;;0.70;95.70;;;;;;5024094;28;20439;-57
2021/01/04 09:50:05;;;;;;;27.30;13.27;;;0.60;95.50;;;;;;5019376;28;20440;-59
2021/01/04 09:52:45;;;;;;;24.90;12.90;;;0.60;95.70;;;;;;5028017;28;20953;-56
2021/01/04 09:55:12;;;;;;;26.17;13.00;;;0.60;95.90;;;;;;5025505;28;20870;-57
2021/01/04 09:57:44;;;;;;;27.33;13.27;;;0.50;95.90;;;;;;5017565;28;21161;-60
2021/01/04 10:00:15;;;;;;;26.13;12.17;;;0.50;96.00;;;;;;5019241;28;21292;-59
2021/01/04 10:02:41;;;;;;;26.80;12.60;;;0.60;96.60;;;;;;5020646;28;20624;-56
2021/01/04 10:05:09;;;;;;;31.27;16.10;;;0.70;96.50;;;;;;5023415;28;20839;-58
2021/01/04 10:07:36;;;;;;;24.37;12.67;;;0.70;96.10;;;;;;5023789;28;20726;-59
2021/01/04 10:10:18;;;;;;;24.90;12.60;;;0.80;95.90;;;;;;5025835;28;20793;-58
2021/01/04 10:12:43;;;;;;;29.90;14.47;;;0.80;95.60;;;;;;5025764;28;20447;-57
2021/01/04 10:15:29;;;;;;;27.33;12.90;;;0.80;95.30;;;;;;5028669;28;20430;-60
2021/01/04 10:18:16;;;;;;;26.83;12.80;;;0.80;95.50;;;;;;5025395;28;20497;-60
2021/01/04 10:20:52;;;;;;;25.77;11.47;;;0.70;95.60;;;;;;5024598;28;20437;-57
2021/01/04 10:23:35;;;;;;;28.43;14.50;;;0.80;95.60;;;;;;5029402;28;20469;-59
2021/01/04 10:26:02;;;;;;;23.67;11.90;;;0.80;95.30;;;;;;5032632;28;20429;-54
2021/01/04 10:28:34;;;;;;;26.23;12.07;;;0.80;95.20;;;;;;5038808;28;20518;-54
2021/01/04 10:31:08;;;;;;;25.07;11.70;;;0.80;95.00;;;;;;5038296;28;20429;-54
2021/01/04 10:33:39;;;;;;;24.67;12.17;;;0.90;95.20;;;;;;5034687;28;20463;-53
2021/01/04 10:36:25;;;;;;;24.13;12.17;;;0.90;95.30;;;;;;5037878;28;20460;-54
2021/01/04 10:39:01;;;;;;;22.07;11.23;;;1.00;95.30;;;;;;5034000;28;20967;-56
2021/01/04 10:41:30;;;;;;;20.63;11.40;;;1.00;95.10;;;;;;5029091;28;20957;-56
2021/01/04 10:44:12;;;;;;;22.73;10.90;;;1.00;95.10;;;;;;5032668;28;20539;-55
2021/01/04 10:46:53;;;;;;;22.90;11.50;;;1.00;94.70;;;;;;5036604;28;20474;-57
2021/01/04 10:49:32;;;;;;;25.40;12.67;;;1.00;94.30;;;;;;5015708;28;20441;-60
2021/01/04 10:51:58;;;;;;;24.57;12.33;;;1.00;94.30;;;;;;5020441;28;20587;-59
2021/01/04 10:54:41;;;;;;;24.50;12.10;;;0.90;94.60;;;;;;5019404;28;20448;-57
2021/01/04 10:57:23;;;;;;;22.93;11.40;;;0.90;94.70;;;;;;5020549;28;20464;-57
2021/01/04 11:00:05;;;;;;;22.27;11.67;;;0.90;94.80;;;;;;5043633;28;20435;-60
2021/01/04 11:02:46;;;;;;;25.83;11.80;;;0.90;94.60;;;;;;5023313;28;20460;-57
2021/01/04 11:05:15;;;;;;;20.97;11.70;;;0.90;94.60;;;;;;5020193;28;20807;-56
2021/01/04 11:07:41;;;;;;;28.13;12.23;;;0.80;94.10;;;;;;5022434;28;20460;-61
2021/01/04 11:10:28;;;;;;;20.40;11.50;;;0.80;94.40;;;;;;5021182;28;20962;-58
2021/01/04 11:12:57;;;;;;;22.97;11.03;;;0.70;94.60;;;;;;5023541;28;20201;-60
2021/01/04 11:15:30;;;;;;;23.67;12.10;;;0.70;94.90;;;;;;5026453;28;20446;-57
2021/01/04 11:18:10;;;;;;;29.73;13.43;;;0.70;95.10;;;;;;5019581;28;21058;-59
2021/01/04 11:20:38;;;;;;;24.07;13.00;;;0.70;95.30;;;;;;5023032;28;20570;-59
2021/01/04 11:23:09;;;;;;;25.10;12.40;;;0.80;95.30;;;;;;5022507;28;20467;-59
2021/01/04 11:25:35;;;;;;;21.03;10.57;;;0.80;95.30;;;;;;5023549;28;20916;-57
2021/01/04 11:28:01;;;;;;;21.13;11.13;;;0.80;95.20;;;;;;5019457;28;20541;-57
2021/01/04 11:30:29;;;;;;;21.60;12.20;;;0.80;95.20;;;;;;5018562;28;20527;-55
2021/01/04 11:32:59;;;;;;;23.83;12.23;;;0.80;95.10;;;;;;5021369;28;20479;-54
2021/01/04 11:35:30;;;;;;;20.33;11.23;;;0.80;95.30;;;;;;5015042;28;20468;-58
2021/01/04 11:37:56;;;;;;;24.53;11.97;;;0.80;95.30;;;;;;5020943;28;20462;-58
2021/01/04 11:40:22;;;;;;;22.73;11.27;;;0.80;95.00;;;;;;5020407;28;20423;-59
2021/01/04 11:42:48;;;;;;;24.50;12.60;;;0.70;95.20;;;;;;5018153;28;20897;-60
2021/01/04 11:45:19;;;;;;;20.90;11.43;;;0.70;95.40;;;;;;5022795;28;20252;-59
2021/01/04 11:47:46;;;;;;;25.97;11.77;;;0.70;95.50;;;;;;5019742;28;20186;-61
2021/01/04 11:50:13;;;;;;;26.90;12.73;;;0.70;95.50;;;;;;5021417;28;20506;-58
2021/01/04 11:52:39;;;;;;;25.17;12.07;;;0.70;95.70;;;;;;5039452;23;20457;-61
2021/01/04 11:55:09;;;;;;;28.70;13.60;;;0.70;95.70;;;;;;5057214;28;21024;-61
2021/01/04 11:57:35;;;;;;;25.20;13.10;;;0.70;95.90;;;;;;5061085;28;20467;-62
2021/01/04 12:00:01;;;;;;;30.73;12.97;;;0.70;95.80;;;;;;5059272;28;20436;-62
2021/01/04 12:02:26;;;;;;;28.40;15.03;;;0.70;95.80;;;;;;5060447;28;21022;-62
2021/01/04 12:04:52;;;;;;;27.93;13.37;;;0.70;95.80;;;;;;5050706;28;21923;-62
2021/01/04 12:07:19;;;;;;;25.77;13.37;;;0.80;95.60;;;;;;5050254;28;20435;-63
2021/01/04 12:09:45;;;;;;;25.20;13.17;;;0.80;95.60;;;;;;5051889;28;20715;-62
2021/01/04 12:12:11;;;;;;;24.70;12.83;;;0.80;95.50;;;;;;5045533;28;20516;-61
2021/01/04 12:14:37;;;;;;;28.87;13.20;;;0.80;95.50;;;;;;5046713;28;20209;-64
2021/01/04 12:17:05;;;;;;;29.63;14.90;;;0.80;95.60;;;;;;5050024;28;20474;-62
2021/01/04 12:19:31;;;;;;;23.93;13.37;;;0.80;95.60;;;;;;5049059;28;20661;-62
2021/01/04 12:22:06;;;;;;;25.40;13.77;;;0.80;95.80;;;;;;5047739;28;20446;-61
2021/01/04 12:24:35;;;;;;;25.53;12.90;;;0.80;95.80;;;;;;5052165;28;20876;-66
2021/01/04 12:27:05;;;;;;;29.87;13.97;;;0.80;96.00;;;;;;5051053;28;20441;-64
2021/01/04 12:29:31;;;;;;;22.23;13.27;;;0.80;96.10;;;;;;5053790;28;20431;-62
2021/01/04 12:31:57;;;;;;;25.60;12.70;;;0.80;96.00;;;;;;5047626;28;20843;-60
2021/01/04 12:34:22;;;;;;;28.73;13.63;;;0.80;96.30;;;;;;5056834;28;20455;-61
2021/01/04 12:36:48;;;;;;;35.57;13.57;;;0.80;96.30;;;;;;5052244;28;20573;-60
2021/01/04 12:39:17;;;;;;;26.73;13.27;;;0.80;96.40;;;;;;5046278;28;20181;-60
2021/01/04 12:41:43;;;;;;;31.57;14.00;;;0.80;96.80;;;;;;5047842;28;20424;-59
2021/01/04 12:44:11;;;;;;;24.13;12.97;;;0.90;96.80;;;;;;5048985;28;20490;-61
2021/01/04 12:46:44;;;;;;;30.03;13.70;;;0.90;96.40;;;;;;5052721;28;20439;-60
2021/01/04 12:49:12;;;;;;;29.20;13.90;;;0.90;96.30;;;;;;5049001;28;20439;-58
2021/01/04 12:51:38;;;;;;;26.03;13.53;;;0.90;96.40;;;;;;5052120;28;20434;-61
2021/01/04 12:54:04;;;;;;;32.90;15.57;;;0.90;96.20;;;;;;5061204;28;20450;-65
2021/01/04 12:56:30;;;;;;;26.37;13.83;;;0.90;96.00;;;;;;5062323;28;20575;-62
2021/01/04 12:58:56;;;;;;;33.77;15.13;;;0.90;96.20;;;;;;5060056;28;20465;-64
2021/01/04 13:01:22;;;;;;;37.70;16.30;;;0.80;96.20;;;;;;5054011;28;20446;-61
2021/01/04 13:03:48;;;;;;;40.17;18.10;;;0.80;96.30;;;;;;5052014;28;20211;-60
2021/01/04 13:06:24;;;;;;;30.70;14.80;;;0.80;96.10;;;;;;5048267;28;20196;-63
2021/01/04 13:08:50;;;;;;;39.53;16.47;;;0.80;96.30;;;;;;5049212;28;20437;-61
2021/01/04 13:11:16;;;;;;;34.70;15.33;;;0.80;96.50;;;;;;5044876;28;20442;-64
2021/01/04 13:13:42;;;;;;;37.00;16.30;;;0.70;96.50;;;;;;5048671;28;20459;-62
2021/01/04 13:16:09;;;;;;;36.43;16.97;;;0.70;96.80;;;;;;5050501;28;20440;-63
2021/01/04 13:18:35;;;;;;;39.87;17.40;;;0.60;97.00;;;;;;5048319;28;20525;-63
2021/01/04 13:21:00;;;;;;;37.30;17.67;;;0.60;97.20;;;;;;5044465;28;20863;-63
2021/01/04 13:23:26;;;;;;;40.60;18.30;;;0.60;97.30;;;;;;5047851;28;20197;-64
2021/01/04 13:25:52;;;;;;;38.83;16.87;;;0.60;97.20;;;;;;5042195;28;20282;-62